Time;durP1;ratioP1;P1;durP2;ratioP2;P2;SDS_P1;SDS_P2;PMS_P1;PMS_P2;Temp;Humidity;BMP_temperature;BMP_pressure;BME280_temperature;BME280_humidity;BME280_pressure;Samples;Min_cycle;Max_cycle;Signal;HPM_P1;HPM_P2
2022/08/10 00:01:53;;;;;;;9.23;5.70;;;16.90;99.90;;;;;;4938050;29;20683;-72
2022/08/10 00:04:22;;;;;;;9.93;5.93;;;16.90;99.90;;;;;;4938325;29;20180;-72
2022/08/10 00:06:51;;;;;;;9.90;5.60;;;16.90;99.90;;;;;;4954957;29;20194;-73
2022/08/10 00:09:19;;;;;;;10.77;5.80;;;16.90;99.90;;;;;;4955424;29;20202;-72
2022/08/10 00:11:45;;;;;;;12.47;6.13;;;16.90;99.90;;;;;;4954839;29;20269;-73
2022/08/10 00:14:12;;;;;;;9.77;5.73;;;16.90;99.90;;;;;;4937727;29;20202;-73
2022/08/10 00:16:39;;;;;;;11.93;5.93;;;16.90;99.90;;;;;;4938026;29;20237;-73
2022/08/10 00:19:06;;;;;;;14.00;6.40;;;16.90;99.90;;;;;;4937766;29;20209;-72
2022/08/10 00:21:35;;;;;;;12.13;5.60;;;16.90;99.90;;;;;;4923713;29;20195;-72
2022/08/10 00:24:03;;;;;;;9.70;5.80;;;16.80;99.90;;;;;;4931705;29;20312;-72
2022/08/10 00:26:30;;;;;;;17.80;6.23;;;16.80;99.90;;;;;;4937981;29;20205;-72
2022/08/10 00:29:17;;;;;;;18.27;6.70;;;16.80;99.90;;;;;;4955434;29;20194;-73
2022/08/10 00:31:44;;;;;;;8.80;5.50;;;16.80;99.90;;;;;;4938642;29;20561;-73
2022/08/10 00:34:26;;;;;;;14.77;6.00;;;16.70;99.90;;;;;;4937845;29;20202;-73
2022/08/10 00:36:53;;;;;;;14.63;6.03;;;16.70;99.90;;;;;;4937702;29;20324;-72
2022/08/10 00:39:20;;;;;;;16.47;6.23;;;16.70;99.90;;;;;;4955095;29;20208;-73
2022/08/10 00:41:47;;;;;;;9.77;6.17;;;16.70;99.90;;;;;;4937773;29;20202;-72
2022/08/10 00:44:37;;;;;;;10.23;6.13;;;16.80;99.90;;;;;;4937643;29;20202;-73
2022/08/10 00:47:06;;;;;;;13.07;5.77;;;16.70;99.90;;;;;;4938002;29;20215;-73
2022/08/10 00:49:47;;;;;;;9.20;5.70;;;16.70;99.90;;;;;;4937952;29;20213;-73
2022/08/10 00:52:16;;;;;;;11.63;5.60;;;16.70;99.90;;;;;;4937616;29;20206;-73
2022/08/10 00:54:45;;;;;;;9.50;5.57;;;16.70;99.90;;;;;;4937539;29;20644;-73
2022/08/10 00:57:13;;;;;;;10.87;5.87;;;16.70;99.90;;;;;;4937737;29;20207;-73
2022/08/10 00:59:45;;;;;;;9.33;5.63;;;16.70;99.90;;;;;;4955074;29;20195;-73
2022/08/10 01:02:26;;;;;;;13.50;6.03;;;16.70;99.90;;;;;;4937477;29;20293;-73
2022/08/10 01:04:54;;;;;;;10.30;5.57;;;16.70;99.90;;;;;;4938058;29;20307;-73
2022/08/10 01:07:48;;;;;;;11.57;6.50;;;16.70;99.90;;;;;;4937833;29;20198;-73
2022/08/10 01:10:31;;;;;;;9.40;5.37;;;16.60;99.90;;;;;;4955132;28;20210;-72
2022/08/10 01:13:15;;;;;;;11.80;5.43;;;16.60;99.90;;;;;;4925540;29;20241;-73
2022/08/10 01:16:03;;;;;;;8.73;5.50;;;16.60;99.90;;;;;;4899892;29;20224;-73
2022/08/10 01:18:45;;;;;;;10.97;5.33;;;16.60;99.90;;;;;;4900011;29;20214;-73
2022/08/10 01:21:49;;;;;;;10.13;5.70;;;16.60;99.90;;;;;;4899700;29;20207;-73
2022/08/10 01:24:41;;;;;;;10.07;5.17;;;16.50;99.90;;;;;;4918614;29;20314;-72
2022/08/10 01:27:29;;;;;;;8.63;5.70;;;16.50;99.90;;;;;;4918634;29;20216;-72
2022/08/10 01:30:06;;;;;;;9.07;5.40;;;16.40;99.90;;;;;;4918555;29;20207;-73
2022/08/10 01:32:50;;;;;;;13.97;5.80;;;16.40;99.90;;;;;;4918219;29;20204;-75
2022/08/10 01:35:23;;;;;;;7.90;5.17;;;16.40;99.90;;;;;;4918770;29;20212;-73
2022/08/10 01:38:02;;;;;;;7.73;5.40;;;16.40;99.90;;;;;;4919667;29;20227;-73
2022/08/10 01:40:34;;;;;;;12.63;5.60;;;16.30;99.90;;;;;;4918293;29;20306;-72
2022/08/10 01:43:07;;;;;;;10.40;5.23;;;16.30;99.90;;;;;;4917960;29;20195;-73
2022/08/10 01:45:40;;;;;;;8.83;5.33;;;16.30;99.90;;;;;;4918370;29;20207;-73
2022/08/10 01:48:27;;;;;;;10.20;5.87;;;16.30;99.90;;;;;;4919684;29;20222;-73
2022/08/10 01:51:20;;;;;;;9.00;5.63;;;16.30;99.90;;;;;;4919579;29;20290;-72
2022/08/10 01:54:07;;;;;;;11.40;5.37;;;16.20;99.90;;;;;;4917923;29;20199;-73
2022/08/10 01:56:47;;;;;;;10.43;5.60;;;16.10;99.90;;;;;;4918000;29;20255;-72
2022/08/10 01:59:27;;;;;;;14.67;6.07;;;16.10;99.90;;;;;;4918181;29;20556;-73
2022/08/10 02:02:04;;;;;;;9.93;5.87;;;16.00;99.90;;;;;;4914845;29;20212;-73
2022/08/10 02:04:35;;;;;;;10.60;5.47;;;16.00;99.90;;;;;;4899163;29;20204;-73
2022/08/10 02:07:03;;;;;;;7.90;5.30;;;15.90;99.90;;;;;;4899166;29;20287;-73
2022/08/10 02:09:34;;;;;;;9.17;5.77;;;15.90;99.90;;;;;;4917647;29;20206;-73
2022/08/10 02:12:08;;;;;;;14.77;5.80;;;15.90;99.90;;;;;;4917618;29;20246;-74
2022/08/10 02:14:43;;;;;;;11.97;5.70;;;15.80;99.90;;;;;;4917791;29;20195;-73
2022/08/10 02:17:14;;;;;;;10.47;5.50;;;15.80;99.90;;;;;;4917605;29;20646;-74
2022/08/10 02:20:06;;;;;;;8.80;5.53;;;15.80;99.90;;;;;;4919009;29;20200;-74
2022/08/10 02:22:36;;;;;;;8.83;5.70;;;15.80;99.90;;;;;;4916909;29;20286;-72
2022/08/10 02:25:14;;;;;;;10.17;5.90;;;15.80;99.90;;;;;;4917625;29;20203;-73
2022/08/10 02:28:03;;;;;;;8.77;5.10;;;15.80;99.90;;;;;;4918981;29;20194;-73
2022/08/10 02:30:32;;;;;;;8.97;5.83;;;15.70;99.90;;;;;;4918014;29;20191;-73
2022/08/10 02:33:01;;;;;;;11.30;6.23;;;15.70;99.90;;;;;;4917688;29;20204;-72
2022/08/10 02:35:30;;;;;;;13.33;6.37;;;15.60;99.90;;;;;;4917568;29;20587;-73
2022/08/10 02:38:24;;;;;;;9.57;5.87;;;15.60;99.90;;;;;;4917566;29;20196;-73
2022/08/10 02:41:14;;;;;;;12.50;6.10;;;15.60;99.90;;;;;;4917327;29;20195;-73
2022/08/10 02:44:06;;;;;;;7.10;5.77;;;15.60;99.90;;;;;;4918524;29;20203;-73
2022/08/10 02:47:14;;;;;;;9.20;5.50;;;15.50;99.90;;;;;;4917497;29;20195;-73
2022/08/10 02:49:45;;;;;;;8.10;5.07;;;15.50;99.90;;;;;;4917061;29;20208;-73
2022/08/10 02:52:23;;;;;;;8.67;5.80;;;15.50;99.90;;;;;;4917408;29;20203;-74
2022/08/10 02:55:00;;;;;;;9.00;5.53;;;15.40;99.90;;;;;;4916889;29;20199;-73
2022/08/10 02:57:49;;;;;;;13.37;5.60;;;15.50;99.90;;;;;;4917316;29;20279;-73
2022/08/10 03:00:42;;;;;;;12.73;5.70;;;15.40;99.90;;;;;;4918597;29;20200;-74
2022/08/10 03:03:20;;;;;;;14.13;6.03;;;15.40;99.90;;;;;;4917299;29;20196;-74
2022/08/10 03:05:50;;;;;;;12.03;5.93;;;15.40;99.90;;;;;;4918509;29;20202;-73
2022/08/10 03:08:26;;;;;;;9.00;5.47;;;15.40;99.90;;;;;;4917179;29;20195;-74
2022/08/10 03:10:55;;;;;;;12.90;5.63;;;15.30;99.90;;;;;;4916858;29;20611;-73
2022/08/10 03:13:24;;;;;;;14.93;6.17;;;15.30;99.90;;;;;;4948849;29;20258;-74
2022/08/10 03:15:51;;;;;;;9.50;5.20;;;15.40;99.90;;;;;;4938932;29;20252;-73
2022/08/10 03:18:23;;;;;;;12.20;5.90;;;15.30;99.90;;;;;;4956648;29;20178;-74
2022/08/10 03:20:52;;;;;;;14.57;5.47;;;15.40;99.90;;;;;;4956086;29;20244;-74
2022/08/10 03:23:22;;;;;;;10.47;5.20;;;15.30;99.90;;;;;;4939270;29;20304;-74
2022/08/10 03:25:52;;;;;;;7.90;5.10;;;15.40;99.90;;;;;;4939813;29;20209;-74
2022/08/10 03:28:23;;;;;;;9.47;5.37;;;15.30;99.90;;;;;;4956336;29;20221;-74
2022/08/10 03:30:51;;;;;;;12.83;5.80;;;15.30;99.90;;;;;;4956610;29;20198;-74
2022/08/10 03:33:20;;;;;;;10.30;5.33;;;15.30;99.90;;;;;;4938838;28;20375;-73
2022/08/10 03:35:48;;;;;;;10.70;5.60;;;15.30;99.90;;;;;;4938313;29;20246;-74
2022/08/10 03:38:36;;;;;;;8.07;4.97;;;15.20;99.90;;;;;;4938683;29;20198;-75
2022/08/10 03:41:05;;;;;;;7.33;5.37;;;15.20;99.90;;;;;;4955915;29;20213;-73
2022/08/10 03:43:33;;;;;;;7.67;5.60;;;15.30;99.90;;;;;;4938536;29;20305;-73
2022/08/10 03:46:05;;;;;;;9.47;5.57;;;15.20;99.90;;;;;;4938422;29;20202;-73
2022/08/10 03:48:35;;;;;;;9.60;5.30;;;15.30;99.90;;;;;;4938368;29;20217;-74
2022/08/10 03:51:17;;;;;;;8.67;5.03;;;15.30;99.90;;;;;;4955359;29;20667;-74
2022/08/10 03:53:45;;;;;;;9.80;5.03;;;15.30;99.90;;;;;;4938184;29;20559;-75
2022/08/10 03:56:37;;;;;;;12.73;5.33;;;15.30;99.90;;;;;;4938622;29;20233;-74
2022/08/10 03:59:12;;;;;;;9.27;5.80;;;15.30;99.90;;;;;;4955416;29;20535;-73
2022/08/10 04:01:44;;;;;;;10.13;6.07;;;15.40;99.90;;;;;;4938325;29;20201;-72
2022/08/10 04:04:32;;;;;;;8.07;5.50;;;15.40;99.90;;;;;;4938354;29;20672;-72
2022/08/10 04:07:00;;;;;;;7.70;5.17;;;15.40;99.90;;;;;;4938365;29;20217;-72
2022/08/10 04:09:31;;;;;;;13.43;5.47;;;15.40;99.90;;;;;;4955578;29;20606;-73
2022/08/10 04:12:19;;;;;;;9.77;4.97;;;15.40;99.90;;;;;;4937594;29;20237;-73
2022/08/10 04:14:46;;;;;;;11.97;5.27;;;15.40;99.90;;;;;;4955125;29;20222;-73
2022/08/10 04:17:23;;;;;;;11.30;5.17;;;15.50;99.90;;;;;;4937954;29;20688;-73
2022/08/10 04:20:38;;;;;;;7.63;5.10;;;15.50;99.90;;;;;;4938159;29;20186;-73
2022/08/10 04:23:08;;;;;;;7.47;5.00;;;15.50;99.90;;;;;;4930200;29;20217;-73
2022/08/10 04:25:37;;;;;;;8.37;5.13;;;15.60;99.90;;;;;;4938080;29;20212;-73
2022/08/10 04:28:05;;;;;;;8.13;4.90;;;15.60;99.90;;;;;;4937819;29;20196;-74
2022/08/10 04:30:34;;;;;;;11.80;5.60;;;15.70;99.90;;;;;;4937959;29;20298;-73
2022/08/10 04:33:04;;;;;;;9.07;5.60;;;15.70;99.90;;;;;;4937914;29;20206;-72
2022/08/10 04:35:32;;;;;;;9.30;5.40;;;15.70;99.90;;;;;;4937885;29;20205;-73
2022/08/10 04:38:02;;;;;;;7.50;5.43;;;15.70;99.90;;;;;;4938265;29;20656;-72
2022/08/10 04:40:29;;;;;;;8.37;5.43;;;15.80;99.90;;;;;;4937910;29;20645;-74
2022/08/10 04:42:59;;;;;;;9.57;5.30;;;15.90;99.90;;;;;;4937450;29;20198;-72
2022/08/10 04:45:32;;;;;;;8.73;5.30;;;15.90;99.90;;;;;;4938334;29;20248;-72
2022/08/10 04:48:19;;;;;;;8.97;5.60;;;16.00;99.90;;;;;;4934060;29;20361;-72
2022/08/10 04:51:07;;;;;;;8.57;5.50;;;16.00;99.90;;;;;;4941434;29;20198;-71
2022/08/10 04:53:36;;;;;;;11.40;5.53;;;16.10;99.90;;;;;;4941291;29;20202;-72
2022/08/10 04:56:23;;;;;;;12.47;5.43;;;16.10;99.90;;;;;;4922104;29;20658;-72
2022/08/10 04:58:58;;;;;;;12.00;5.90;;;16.20;99.90;;;;;;4922534;29;20317;-72
2022/08/10 05:01:25;;;;;;;13.37;6.07;;;16.30;99.90;;;;;;4938032;29;20298;-73
2022/08/10 05:03:52;;;;;;;7.60;5.13;;;16.30;99.90;;;;;;4924189;29;20201;-74
2022/08/10 05:06:39;;;;;;;12.87;5.90;;;16.40;99.90;;;;;;4941455;29;20213;-75
2022/08/10 05:09:06;;;;;;;9.43;5.23;;;16.40;99.90;;;;;;4957007;29;20198;-74
2022/08/10 05:11:33;;;;;;;9.70;5.30;;;16.50;99.90;;;;;;4923964;29;20657;-74
2022/08/10 05:14:00;;;;;;;8.07;5.33;;;16.50;99.90;;;;;;4939184;29;20202;-73
2022/08/10 05:16:26;;;;;;;11.40;5.33;;;16.70;99.90;;;;;;4938608;29;20494;-72
2022/08/10 05:18:58;;;;;;;8.60;5.27;;;16.80;99.90;;;;;;4936873;29;20237;-73
2022/08/10 05:21:25;;;;;;;11.17;5.20;;;16.80;99.90;;;;;;4941023;29;20311;-73
2022/08/10 05:24:12;;;;;;;9.47;5.27;;;16.80;99.90;;;;;;4940543;29;20214;-73
2022/08/10 05:26:39;;;;;;;9.43;5.10;;;16.90;99.90;;;;;;4940813;29;20203;-74
2022/08/10 05:29:25;;;;;;;6.43;4.57;;;17.00;99.90;;;;;;4958256;29;20242;-74
2022/08/10 05:31:53;;;;;;;8.30;4.77;;;17.00;99.90;;;;;;4952195;29;20187;-71
2022/08/10 05:34:25;;;;;;;7.10;4.53;;;17.10;99.90;;;;;;4939309;29;20565;-72
2022/08/10 05:36:54;;;;;;;9.10;4.97;;;17.20;99.90;;;;;;4939544;29;20688;-72
2022/08/10 05:39:24;;;;;;;8.50;4.93;;;17.40;99.90;;;;;;4939734;29;20653;-72
2022/08/10 05:42:00;;;;;;;10.80;5.10;;;17.50;99.90;;;;;;4938033;29;20241;-73
2022/08/10 05:44:28;;;;;;;9.03;4.83;;;17.60;99.90;;;;;;4939592;29;20843;-72
2022/08/10 05:46:55;;;;;;;9.73;4.23;;;17.70;99.90;;;;;;4938711;29;20205;-72
2022/08/10 05:49:23;;;;;;;6.23;4.27;;;17.70;99.90;;;;;;4938200;29;20190;-71
2022/08/10 05:51:50;;;;;;;7.27;4.30;;;17.70;99.90;;;;;;4938311;29;20640;-72
2022/08/10 05:54:17;;;;;;;9.03;4.50;;;17.80;99.90;;;;;;4939010;29;20198;-72
2022/08/10 05:56:47;;;;;;;6.60;4.37;;;18.00;99.90;;;;;;4957141;28;20218;-73
2022/08/10 05:59:32;;;;;;;7.57;4.40;;;18.00;99.90;;;;;;4940335;29;20198;-73
2022/08/10 06:02:26;;;;;;;7.43;4.17;;;18.00;99.90;;;;;;4957191;29;20553;-74
2022/08/10 06:05:23;;;;;;;12.90;4.77;;;18.00;99.90;;;;;;4940405;29;20208;-74
2022/08/10 06:08:11;;;;;;;9.63;4.03;;;18.10;99.90;;;;;;4956508;29;20202;-74
2022/08/10 06:10:40;;;;;;;13.07;4.50;;;18.10;99.90;;;;;;4926669;29;20656;-74
2022/08/10 06:16:37;;;;;;;36.73;7.30;;;18.30;99.90;;;;;;4937781;29;20262;-73
2022/08/10 06:19:06;;;;;;;10.17;4.30;;;18.40;99.90;;;;;;4921024;29;20195;-73
2022/08/10 06:21:33;;;;;;;12.50;4.27;;;18.50;99.90;;;;;;4926025;29;20246;-72
2022/08/10 06:24:01;;;;;;;15.20;5.30;;;18.50;99.90;;;;;;4934560;29;20224;-71
2022/08/10 06:26:28;;;;;;;12.83;4.67;;;18.60;99.90;;;;;;4938008;29;20241;-72
2022/08/10 06:28:58;;;;;;;8.23;4.07;;;18.70;99.90;;;;;;4938449;29;20201;-73
2022/08/10 06:31:33;;;;;;;7.10;4.33;;;18.70;99.90;;;;;;4937731;29;20575;-71
2022/08/10 06:34:20;;;;;;;11.73;4.60;;;18.70;99.90;;;;;;4936528;29;20214;-71
2022/08/10 06:36:47;;;;;;;7.53;4.27;;;18.70;99.90;;;;;;4939083;29;20210;-71
2022/08/10 06:39:14;;;;;;;7.57;3.97;;;18.70;99.90;;;;;;4939658;29;20292;-72
2022/08/10 06:42:19;;;;;;;19.57;4.93;;;18.80;99.90;;;;;;4939451;29;20198;-73
2022/08/10 06:45:03;;;;;;;11.33;4.20;;;19.00;99.90;;;;;;4956762;29;20256;-72
2022/08/10 06:47:50;;;;;;;13.23;4.20;;;19.00;99.90;;;;;;4939348;29;20205;-73
2022/08/10 06:50:27;;;;;;;10.13;4.30;;;19.20;99.90;;;;;;4938945;29;20217;-73
2022/08/10 06:53:16;;;;;;;7.80;4.30;;;19.20;99.90;;;;;;4938512;29;20214;-73
2022/08/10 06:55:57;;;;;;;13.00;4.53;;;19.30;99.90;;;;;;4938321;29;20277;-73
2022/08/10 06:58:28;;;;;;;10.77;4.50;;;19.40;99.90;;;;;;4938407;29;20224;-74
2022/08/10 07:00:55;;;;;;;11.07;4.10;;;19.50;99.90;;;;;;4938953;29;20653;-73
2022/08/10 07:03:29;;;;;;;6.17;3.60;;;19.50;99.90;;;;;;4938874;29;20297;-72
2022/08/10 07:05:58;;;;;;;9.37;3.30;;;19.50;99.90;;;;;;4938891;29;20234;-70
2022/08/10 07:08:30;;;;;;;7.47;3.33;;;19.60;99.90;;;;;;4938915;29;20212;-71
2022/08/10 07:10:58;;;;;;;13.23;3.73;;;19.70;99.90;;;;;;4939058;29;20561;-75
2022/08/10 07:13:27;;;;;;;8.97;3.70;;;19.80;99.90;;;;;;4955581;29;20653;-73
2022/08/10 07:16:17;;;;;;;10.77;3.90;;;19.90;99.90;;;;;;4938654;29;20190;-72
2022/08/10 07:18:47;;;;;;;7.83;3.83;;;20.00;99.90;;;;;;4938553;29;20306;-71
2022/08/10 07:21:17;;;;;;;7.30;4.00;;;20.00;99.90;;;;;;4938998;29;20277;-73
2022/08/10 07:23:46;;;;;;;7.60;3.60;;;20.20;99.90;;;;;;4938093;29;20592;-72
2022/08/10 07:26:27;;;;;;;6.27;3.10;;;20.30;99.90;;;;;;4955832;29;20257;-72
2022/08/10 07:28:55;;;;;;;6.57;3.27;;;20.50;99.90;;;;;;4938596;29;20289;-69
2022/08/10 07:31:23;;;;;;;6.67;3.10;;;20.60;99.90;;;;;;4938517;29;20202;-70
2022/08/10 07:34:13;;;;;;;7.13;3.27;;;20.80;99.90;;;;;;4955387;29;20202;-71
2022/08/10 07:36:59;;;;;;;9.77;3.60;;;20.80;99.90;;;;;;4938016;29;21007;-71
2022/08/10 07:39:30;;;;;;;18.70;4.27;;;20.90;99.90;;;;;;4938699;29;20737;-72
2022/08/10 07:42:20;;;;;;;13.07;3.20;;;21.00;99.90;;;;;;4938007;29;20202;-72
2022/08/10 07:44:49;;;;;;;7.37;3.10;;;21.10;99.90;;;;;;4938436;29;20201;-72
2022/08/10 07:47:22;;;;;;;8.87;2.73;;;21.10;99.90;;;;;;4938267;29;20336;-72
2022/08/10 07:50:12;;;;;;;6.23;2.50;;;21.20;99.90;;;;;;4938223;29;20209;-71
2022/08/10 07:52:41;;;;;;;4.13;2.80;;;21.20;99.90;;;;;;4938149;29;20229;-71
2022/08/10 07:55:14;;;;;;;4.97;2.70;;;21.20;99.90;;;;;;4937609;29;20301;-74
2022/08/10 07:57:43;;;;;;;5.03;2.87;;;21.20;99.90;;;;;;4937973;29;20312;-71
2022/08/10 08:00:11;;;;;;;7.00;2.70;;;21.40;99.90;;;;;;4938389;29;20198;-71
2022/08/10 08:02:46;;;;;;;16.07;3.40;;;21.40;99.90;;;;;;4937914;29;20297;-71
2022/08/10 08:05:15;;;;;;;4.13;2.60;;;21.40;99.90;;;;;;4938173;29;20190;-71
2022/08/10 08:08:04;;;;;;;5.57;2.67;;;21.60;99.90;;;;;;4954896;29;20653;-70
2022/08/10 08:10:32;;;;;;;9.30;2.83;;;21.70;99.90;;;;;;4955446;29;20190;-68
2022/08/10 08:13:01;;;;;;;3.37;2.30;;;22.00;99.90;;;;;;4937642;29;20242;-72
2022/08/10 08:15:29;;;;;;;6.97;2.87;;;22.30;99.90;;;;;;4938010;29;20694;-71
2022/08/10 08:18:18;;;;;;;7.25;2.40;;;23.20;99.90;;;;;;4937722;29;20222;-71
2022/08/10 08:20:53;;;;;;;4.28;2.40;;;24.90;99.90;;;;;;4956430;28;20549;-72
2022/08/10 08:23:21;;;;;;;5.07;2.67;;;25.90;99.90;;;;;;4941774;29;20221;-69
2022/08/10 08:26:09;;;;;;;5.15;2.38;;;26.50;99.90;;;;;;4941771;29;20275;-70
2022/08/10 08:28:37;;;;;;;9.00;2.33;;;26.90;99.90;;;;;;4941819;29;20209;-71
2022/08/10 08:31:05;;;;;;;8.25;2.83;;;27.30;99.90;;;;;;4941435;29;20212;-72
2022/08/10 08:33:33;;;;;;;5.38;2.40;;;27.50;99.90;;;;;;4941423;29;20355;-71
2022/08/10 08:36:10;;;;;;;4.80;1.88;;;27.90;99.90;;;;;;4941763;29;20218;-70
2022/08/10 08:38:37;;;;;;;4.55;2.10;;;28.40;99.90;;;;;;4941342;29;20770;-71
2022/08/10 08:41:28;;;;;;;5.35;1.95;;;28.60;99.90;;;;;;4941297;29;20296;-72
2022/08/10 08:44:22;;;;;;;5.10;2.10;;;28.50;99.90;;;;;;4958364;29;20214;-71
2022/08/10 08:47:01;;;;;;;3.00;2.00;;;28.40;99.90;;;;;;4941236;29;20297;-71
2022/08/10 08:50:12;;;;;;;7.22;2.58;;;28.00;99.90;;;;;;4941275;29;20206;-70
2022/08/10 08:53:13;;;;;;;4.60;2.70;;;27.90;99.90;;;;;;4915693;29;20206;-70
2022/08/10 08:56:08;;;;;;;4.93;2.25;;;28.10;99.90;;;;;;4941363;29;20683;-70
2022/08/10 08:59:04;;;;;;;4.07;1.92;;;28.00;99.90;;;;;;4941018;29;20316;-71
2022/08/10 09:01:50;;;;;;;5.90;2.30;;;28.50;99.90;;;;;;4940952;29;20198;-69
2022/08/10 09:04:44;;;;;;;2.70;1.60;;;28.60;99.30;;;;;;4941301;29;20206;-71
2022/08/10 09:07:38;;;;;;;3.30;1.75;;;27.90;97.90;;;;;;4940909;29;20201;-70
2022/08/10 09:10:30;;;;;;;3.42;1.67;;;27.60;99.20;;;;;;4941141;29;20293;-72
2022/08/10 09:13:14;;;;;;;3.28;2.00;;;27.90;98.80;;;;;;4940622;29;20688;-71
2022/08/10 09:15:52;;;;;;;2.22;1.60;;;28.50;98.80;;;;;;4940902;29;20289;-71
2022/08/10 09:19:02;;;;;;;3.05;1.95;;;28.30;97.80;;;;;;4957907;29;20309;-71
2022/08/10 09:21:51;;;;;;;3.47;1.83;;;27.60;98.50;;;;;;4940915;29;20304;-71
2022/08/10 09:25:20;;;;;;;5.55;2.20;;;26.80;99.50;;;;;;4940845;29;20312;-70
2022/08/10 09:28:01;;;;;;;3.10;2.15;;;27.10;99.90;;;;;;4864635;29;20630;-72
2022/08/10 09:30:54;;;;;;;3.88;1.92;;;27.50;99.10;;;;;;4864312;29;20690;-71
2022/08/10 09:34:15;;;;;;;6.05;2.17;;;27.40;99.20;;;;;;4863423;29;20212;-72
2022/08/10 09:37:18;;;;;;;3.15;2.10;;;26.80;98.60;;;;;;4864277;29;20225;-72
2022/08/10 09:39:55;;;;;;;5.07;2.38;;;26.30;99.90;;;;;;4879841;29;20200;-71
2022/08/10 09:42:50;;;;;;;3.83;2.33;;;25.50;99.90;;;;;;4863993;29;20204;-71
2022/08/10 09:45:52;;;;;;;4.03;2.03;;;24.90;99.90;;;;;;4864266;29;20216;-70
2022/08/10 09:48:30;;;;;;;3.30;1.95;;;25.00;99.90;;;;;;4864167;29;20209;-71
2022/08/10 09:51:06;;;;;;;2.83;2.00;;;25.20;99.90;;;;;;4879473;29;20209;-71
2022/08/10 09:54:11;;;;;;;4.95;2.13;;;25.10;99.90;;;;;;4863957;29;20212;-72
2022/08/10 09:57:18;;;;;;;4.40;2.33;;;25.00;99.90;;;;;;4849019;29;20576;-71
2022/08/10 10:00:20;;;;;;;3.70;2.00;;;25.00;99.90;;;;;;4898395;29;20208;-71
2022/08/10 10:03:02;;;;;;;2.78;1.83;;;24.80;99.90;;;;;;4897959;29;20208;-72
2022/08/10 10:05:38;;;;;;;2.42;1.60;;;25.30;99.90;;;;;;4898063;29;20581;-73
2022/08/10 10:08:22;;;;;;;6.75;2.53;;;26.10;99.90;;;;;;4882481;29;20212;-72
2022/08/10 10:11:13;;;;;;;3.95;1.95;;;26.70;99.90;;;;;;4897967;29;20324;-73
2022/08/10 10:13:49;;;;;;;3.72;1.80;;;26.90;99.10;;;;;;4882195;29;20232;-72
2022/08/10 10:16:39;;;;;;;2.13;1.40;;;26.80;98.80;;;;;;4882083;29;20247;-74
2022/08/10 10:20:00;;;;;;;3.80;1.73;;;26.40;98.10;;;;;;4897773;29;20263;-72
2022/08/10 10:23:06;;;;;;;10.40;2.70;;;26.10;98.60;;;;;;4844577;29;20205;-72
2022/08/10 10:26:01;;;;;;;3.25;1.70;;;26.10;98.30;;;;;;4845125;29;20209;-71
2022/08/10 10:29:01;;;;;;;2.00;1.70;;;25.70;98.60;;;;;;4845018;29;20581;-71
2022/08/10 10:32:02;;;;;;;2.85;1.58;;;25.90;99.10;;;;;;4860083;29;20654;-71
2022/08/10 10:34:47;;;;;;;13.98;2.95;;;26.80;98.30;;;;;;4856884;29;20205;-73
2022/08/10 10:37:16;;;;;;;3.63;1.80;;;27.70;98.30;;;;;;4878527;29;20271;-72
2022/08/10 10:39:49;;;;;;;5.43;1.90;;;28.70;96.30;;;;;;4878759;29;20209;-71
2022/08/10 10:42:18;;;;;;;4.15;1.70;;;29.60;95.20;;;;;;4878510;29;20197;-71
2022/08/10 10:45:18;;;;;;;2.08;1.58;;;30.20;94.20;;;;;;4878362;29;20283;-72
2022/08/10 10:48:10;;;;;;;3.70;1.80;;;31.30;93.20;;;;;;4878426;29;20232;-73
2022/08/10 10:51:26;;;;;;;3.47;1.55;;;31.60;90.20;;;;;;4878275;29;20767;-72
2022/08/10 10:54:20;;;;;;;2.42;1.50;;;32.00;85.40;;;;;;4877802;29;20240;-71
2022/08/10 10:56:56;;;;;;;1.55;1.30;;;32.20;81.10;;;;;;4924709;29;20236;-72
2022/08/10 10:59:59;;;;;;;2.80;1.48;;;32.40;78.20;;;;;;4938509;29;20232;-73
2022/08/10 11:02:55;;;;;;;1.83;1.50;;;32.70;77.60;;;;;;4938425;29;20205;-73
2022/08/10 11:05:43;;;;;;;7.13;2.17;;;32.70;77.40;;;;;;4877730;29;20296;-73
2022/08/10 11:08:23;;;;;;;2.20;1.50;;;33.10;75.10;;;;;;4862241;29;20287;-72
2022/08/10 11:11:00;;;;;;;3.53;1.60;;;33.30;74.40;;;;;;4877938;29;20762;-71
2022/08/10 11:13:36;;;;;;;2.95;1.80;;;33.40;76.10;;;;;;4877530;29;20305;-73
2022/08/10 11:16:37;;;;;;;2.47;1.80;;;33.40;74.80;;;;;;4862117;29;20281;-72
2022/08/10 11:19:32;;;;;;;3.40;1.70;;;32.70;74.20;;;;;;4861793;29;20241;-72
2022/08/10 11:22:34;;;;;;;3.20;1.40;;;32.00;73.30;;;;;;4861902;29;20212;-71
2022/08/10 11:25:08;;;;;;;1.70;1.60;;;31.50;73.90;;;;;;4877528;29;20232;-72
2022/08/10 11:27:42;;;;;;;2.72;1.23;;;31.50;73.90;;;;;;4877536;29;20301;-72
2022/08/10 11:30:12;;;;;;;1.58;1.27;;;32.10;72.70;;;;;;4862149;29;20207;-72
2022/08/10 11:33:09;;;;;;;1.77;1.30;;;32.50;69.60;;;;;;4861818;29;20209;-72
2022/08/10 11:35:52;;;;;;;2.15;1.27;;;32.30;69.50;;;;;;4877495;29;20281;-73
2022/08/10 11:38:28;;;;;;;2.05;1.40;;;32.50;68.40;;;;;;4861872;29;20749;-73
2022/08/10 11:41:32;;;;;;;2.00;1.40;;;32.60;68.90;;;;;;4874257;29;20211;-73
2022/08/10 11:44:33;;;;;;;2.30;1.23;;;32.60;67.40;;;;;;4937534;29;20297;-73
2022/08/10 11:47:17;;;;;;;6.47;1.60;;;32.90;68.30;;;;;;4955136;29;20209;-73
2022/08/10 11:50:07;;;;;;;3.47;1.52;;;32.20;67.90;;;;;;4938184;29;20201;-74
2022/08/10 11:52:48;;;;;;;5.53;1.80;;;31.20;70.90;;;;;;4954729;29;20194;-75
2022/08/10 11:55:22;;;;;;;5.03;1.58;;;30.10;74.30;;;;;;4936989;29;20505;-74
2022/08/10 11:57:52;;;;;;;4.18;1.60;;;29.60;76.10;;;;;;4937542;29;20268;-72
2022/08/10 12:00:24;;;;;;;2.13;1.50;;;29.30;76.80;;;;;;4937538;29;20198;-73
2022/08/10 12:03:02;;;;;;;2.47;1.60;;;28.90;77.60;;;;;;4937777;29;20244;-74
2022/08/10 12:05:34;;;;;;;3.63;1.70;;;28.80;79.30;;;;;;4937809;29;20198;-73
2022/08/10 12:08:24;;;;;;;2.13;1.40;;;28.90;81.00;;;;;;4937085;29;20297;-73
2022/08/10 12:11:15;;;;;;;2.40;1.48;;;29.40;77.50;;;;;;4954364;29;20198;-74
2022/08/10 12:14:18;;;;;;;2.83;1.55;;;30.50;76.20;;;;;;4937181;29;20266;-74
2022/08/10 12:16:53;;;;;;;2.15;1.52;;;31.10;75.10;;;;;;4954821;29;20237;-74
2022/08/10 12:19:38;;;;;;;5.50;2.03;;;31.90;73.70;;;;;;4937689;29;20620;-75
2022/08/10 12:22:55;;;;;;;2.65;1.35;;;32.40;70.70;;;;;;4954684;29;20208;-75
2022/08/10 12:25:47;;;;;;;1.67;1.25;;;33.30;67.70;;;;;;4937633;29;20291;-75
2022/08/10 12:28:35;;;;;;;4.60;1.42;;;33.70;66.30;;;;;;4932175;29;20205;-76
2022/08/10 12:31:23;;;;;;;1.85;1.35;;;33.50;65.10;;;;;;4937446;29;20255;-74
2022/08/10 12:34:00;;;;;;;4.72;1.38;;;33.00;65.00;;;;;;4937638;29;20201;-74
2022/08/10 12:36:40;;;;;;;1.92;1.25;;;32.20;66.80;;;;;;4921909;29;20245;-76
2022/08/10 12:39:17;;;;;;;2.83;1.20;;;31.50;66.60;;;;;;4954218;29;20630;-74
2022/08/10 12:41:56;;;;;;;3.72;1.30;;;30.70;67.20;;;;;;4937208;29;20201;-75
2022/08/10 12:44:43;;;;;;;3.83;1.48;;;29.80;68.50;;;;;;4937544;29;20219;-75
2022/08/10 12:47:28;;;;;;;1.40;1.30;;;29.50;71.10;;;;;;4937465;29;20216;-75
2022/08/10 12:50:01;;;;;;;1.80;1.20;;;30.30;70.60;;;;;;4937484;29;20186;-76
2022/08/10 12:53:26;;;;;;;7.13;1.67;;;30.90;66.70;;;;;;4937047;29;20190;-74
2022/08/10 12:55:55;;;;;;;1.30;1.05;;;31.90;66.30;;;;;;4954500;29;20281;-74
2022/08/10 12:58:22;;;;;;;1.77;0.90;;;32.80;62.10;;;;;;4936978;29;20269;-75
2022/08/10 13:01:10;;;;;;;1.40;1.13;;;33.50;61.80;;;;;;4937072;29;20619;-75
2022/08/10 13:03:46;;;;;;;2.15;1.30;;;33.70;60.90;;;;;;4954170;29;20194;-75
2022/08/10 13:06:40;;;;;;;2.38;1.27;;;33.00;60.90;;;;;;4937674;29;20249;-74
2022/08/10 13:09:07;;;;;;;2.55;1.38;;;32.10;64.10;;;;;;4940726;29;20237;-76
2022/08/10 13:11:58;;;;;;;3.10;1.40;;;31.30;66.20;;;;;;4940452;29;20203;-75
2022/08/10 13:15:05;;;;;;;7.80;2.05;;;30.30;67.80;;;;;;4957791;29;20205;-76
2022/08/10 13:17:56;;;;;;;3.78;1.40;;;29.70;71.00;;;;;;4957617;29;20209;-74
2022/08/10 13:20:28;;;;;;;2.33;1.63;;;29.40;72.70;;;;;;4939829;29;20202;-75
2022/08/10 13:23:00;;;;;;;3.85;1.65;;;29.00;73.40;;;;;;4939952;28;20302;-76
2022/08/10 13:25:36;;;;;;;4.40;1.60;;;28.40;74.30;;;;;;4957599;29;20284;-76
2022/08/10 13:28:07;;;;;;;2.35;1.38;;;28.20;76.40;;;;;;4940310;29;20606;-74
2022/08/10 13:30:55;;;;;;;3.70;1.75;;;28.10;77.10;;;;;;4939890;29;20206;-73
2022/08/10 13:33:26;;;;;;;3.42;1.90;;;28.00;78.30;;;;;;4940447;29;20221;-74
2022/08/10 13:36:15;;;;;;;3.65;1.90;;;27.80;77.50;;;;;;4940349;29;20525;-74
2022/08/10 13:38:47;;;;;;;2.40;1.48;;;27.60;78.00;;;;;;4939799;29;20222;-72
2022/08/10 13:41:16;;;;;;;4.07;1.90;;;27.50;78.40;;;;;;4940100;29;20194;-72
2022/08/10 13:43:57;;;;;;;3.08;1.58;;;27.20;77.90;;;;;;4940230;29;20198;-72
2022/08/10 13:46:25;;;;;;;2.67;1.45;;;27.00;78.10;;;;;;4940134;29;20202;-74
2022/08/10 13:48:53;;;;;;;14.48;3.20;;;27.00;78.50;;;;;;4940085;29;20198;-75
2022/08/10 13:51:26;;;;;;;4.57;1.88;;;27.10;78.80;;;;;;4939783;29;20234;-74